createdAt,value
2022-10-04T00:03:25.878Z,6.17
2022-10-04T00:08:41.960Z,6.24
2022-10-04T00:13:52.018Z,6.41
2022-10-04T00:19:25.899Z,6.75
2022-10-04T00:24:31.453Z,7.14
2022-10-04T00:29:37.735Z,6.29
2022-10-04T00:34:51.136Z,6.10
2022-10-04T00:40:02.409Z,6.12
2022-10-04T00:45:15.372Z,6.99
2022-10-04T00:50:27.170Z,7.23
2022-10-04T00:55:37.422Z,7.37
2022-10-04T01:00:43.314Z,7.31
2022-10-04T01:05:54.028Z,7.51
2022-10-04T01:11:02.576Z,7.15
2022-10-04T01:16:15.054Z,7.06
2022-10-04T01:21:28.789Z,6.79
2022-10-04T01:26:41.034Z,6.26
2022-10-04T01:31:47.806Z,6.28
2022-10-04T01:36:54.572Z,6.21
2022-10-04T01:42:06.139Z,6.51
2022-10-04T01:47:14.530Z,6.44
2022-10-04T01:52:24.242Z,6.27
2022-10-04T01:57:35.456Z,6.26
2022-10-04T02:02:44.139Z,6.07
2022-10-04T02:07:49.961Z,6.01
2022-10-04T02:12:57.296Z,5.95
2022-10-04T02:18:02.196Z,5.98
2022-10-04T02:23:06.636Z,5.96
2022-10-04T02:28:14.198Z,6.06
2022-10-04T02:33:18.371Z,6.08
2022-10-04T02:38:25.838Z,5.93
2022-10-04T02:43:35.589Z,5.78
2022-10-04T02:48:45.727Z,5.69
2022-10-04T02:54:03.836Z,5.67
2022-10-04T02:59:16.863Z,5.72
2022-10-04T03:04:23.593Z,5.77
2022-10-04T03:09:30.089Z,5.90
2022-10-04T03:14:36.184Z,6.05
2022-10-04T03:19:40.366Z,6.00
2022-10-04T03:24:47.913Z,6.02
2022-10-04T03:29:58.922Z,6.01
2022-10-04T03:35:07.719Z,6.06
2022-10-04T03:40:12.839Z,5.97
2022-10-04T03:45:21.272Z,6.51
2022-10-04T03:50:28.850Z,6.64
2022-10-04T03:55:38.332Z,6.06
2022-10-04T04:00:47.783Z,6.06
2022-10-04T04:05:55.717Z,6.18
2022-10-04T04:11:02.999Z,5.94
2022-10-04T04:16:11.571Z,5.80
2022-10-04T04:21:18.087Z,6.41
2022-10-04T04:26:28.388Z,6.43
2022-10-04T04:31:39.119Z,6.37
2022-10-04T04:36:43.725Z,6.45
2022-10-04T04:41:50.779Z,6.53
2022-10-04T04:46:56.990Z,6.31
2022-10-04T04:52:01.050Z,6.41
2022-10-04T04:57:06.992Z,6.29
2022-10-04T05:02:30.295Z,6.12
2022-10-04T05:07:34.250Z,6.09
2022-10-04T05:12:38.196Z,6.23
2022-10-04T05:17:43.596Z,6.24
2022-10-04T05:22:50.504Z,6.21
2022-10-04T05:27:56.398Z,6.46
2022-10-04T05:33:06.238Z,6.80
2022-10-04T05:38:16.633Z,6.92
2022-10-04T05:43:33.426Z,6.75
2022-10-04T05:48:42.777Z,7.30
2022-10-04T05:53:47.172Z,7.26
2022-10-04T05:59:05.742Z,7.42
2022-10-04T06:04:37.795Z,7.60
2022-10-04T06:09:57.442Z,7.39
2022-10-04T06:15:23.035Z,7.70
2022-10-04T06:20:50.797Z,7.90
2022-10-04T06:26:01.826Z,7.96
2022-10-04T06:31:33.801Z,8.10
2022-10-04T06:37:03.522Z,8.36
2022-10-04T06:42:25.426Z,8.76
2022-10-04T06:47:48.175Z,8.79
2022-10-04T06:53:10.056Z,8.89
2022-10-04T06:58:54.523Z,8.39
2022-10-04T07:04:07.516Z,8.36
2022-10-04T07:09:21.858Z,8.39
2022-10-04T07:14:31.982Z,8.44
2022-10-04T07:19:40.952Z,8.15
2022-10-04T07:25:02.273Z,8.16
2022-10-04T07:30:16.033Z,8.40
2022-10-04T07:35:33.964Z,8.53
2022-10-04T07:40:42.289Z,8.70
2022-10-04T07:45:48.605Z,8.74
2022-10-04T07:51:09.495Z,9.10
2022-10-04T07:56:19.259Z,9.23
2022-10-04T08:01:33.480Z,9.31
2022-10-04T08:06:40.692Z,9.64
2022-10-04T08:11:52.396Z,9.52
2022-10-04T08:17:15.584Z,9.23
2022-10-04T08:22:30.009Z,9.52
2022-10-04T08:28:09.142Z,9.38
2022-10-04T08:33:30.053Z,9.55
2022-10-04T08:38:57.344Z,9.91
2022-10-04T08:44:49.415Z,10.21
2022-10-04T08:50:19.616Z,10.45
2022-10-04T08:56:02.180Z,10.49
2022-10-04T09:01:37.634Z,10.58
2022-10-04T09:06:54.490Z,10.57
2022-10-04T09:12:12.170Z,10.09
2022-10-04T09:17:22.983Z,10.06
2022-10-04T09:22:48.141Z,10.13
2022-10-04T09:28:12.189Z,10.33
2022-10-04T09:33:52.235Z,10.39
2022-10-04T09:39:29.932Z,11.17
2022-10-04T09:44:54.834Z,13.27
2022-10-04T09:50:35.866Z,14.13
2022-10-04T09:56:05.244Z,14.64
2022-10-04T10:01:18.057Z,12.41
2022-10-04T10:07:01.049Z,12.82
2022-10-04T10:12:29.770Z,11.96
2022-10-04T10:17:41.218Z,12.08
2022-10-04T10:23:20.798Z,13.10
2022-10-04T10:28:43.545Z,12.96
2022-10-04T10:34:26.986Z,12.82
2022-10-04T10:40:18.506Z,12.74
2022-10-04T10:45:52.584Z,13.90
2022-10-04T10:51:03.910Z,17.98
2022-10-04T10:56:32.758Z,19.00
2022-10-04T11:02:10.404Z,18.39
2022-10-04T11:07:46.780Z,19.32
2022-10-04T11:13:21.509Z,16.10
2022-10-04T11:19:00.812Z,14.86
2022-10-04T11:24:29.194Z,14.81
2022-10-04T11:30:05.484Z,15.33
2022-10-04T11:35:37.251Z,17.61
2022-10-04T11:41:01.420Z,16.07
2022-10-04T11:46:25.062Z,15.74
2022-10-04T11:52:06.404Z,17.63
2022-10-04T11:57:27.604Z,17.86
2022-10-04T12:02:56.781Z,17.48
2022-10-04T12:08:16.994Z,17.37
2022-10-04T12:13:50.650Z,17.88
2022-10-04T12:19:28.200Z,15.90
2022-10-04T12:24:52.028Z,14.20
2022-10-04T12:30:36.987Z,14.16
2022-10-04T12:35:59.500Z,13.47
2022-10-04T12:41:16.628Z,12.72
2022-10-04T12:46:33.986Z,13.65
2022-10-04T12:51:49.004Z,13.71
2022-10-04T12:56:59.516Z,14.15
2022-10-04T13:02:21.671Z,14.26
2022-10-04T13:08:03.617Z,14.36
2022-10-04T13:13:42.407Z,12.95
2022-10-04T13:18:54.716Z,12.45
2022-10-04T13:24:05.992Z,12.33
2022-10-04T13:29:21.535Z,12.50
2022-10-04T13:34:35.946Z,12.33
2022-10-04T13:40:03.455Z,12.63
2022-10-04T13:45:37.604Z,13.09
2022-10-04T13:51:00.244Z,14.22
2022-10-04T13:56:41.217Z,13.28
2022-10-04T14:02:23.218Z,13.18
2022-10-04T14:07:46.308Z,13.02
2022-10-04T14:13:20.132Z,12.75
2022-10-04T14:18:54.063Z,12.28
2022-10-04T14:24:35.054Z,12.01
2022-10-04T14:30:18.813Z,11.35
2022-10-04T14:35:27.608Z,11.16
2022-10-04T14:40:53.164Z,11.24
2022-10-04T14:46:15.149Z,11.14
2022-10-04T14:51:36.056Z,11.20
2022-10-04T14:56:52.364Z,11.14
2022-10-04T15:02:24.150Z,11.16
2022-10-04T15:07:37.101Z,11.19
2022-10-04T15:13:12.793Z,11.19
2022-10-04T15:18:55.842Z,11.08
2022-10-04T15:24:11.935Z,11.08
2022-10-04T15:29:26.732Z,10.88
2022-10-04T15:34:42.420Z,10.74
2022-10-04T15:40:25.331Z,10.63
2022-10-04T15:46:07.795Z,10.58
2022-10-04T15:51:19.735Z,10.32
2022-10-04T15:56:51.660Z,10.42
2022-10-04T16:02:03.243Z,10.18
2022-10-04T16:07:36.771Z,9.99
2022-10-04T16:13:02.384Z,9.97
2022-10-04T16:18:26.634Z,9.83
2022-10-04T16:23:34.996Z,9.67
2022-10-04T16:29:05.457Z,9.54
2022-10-04T16:34:31.955Z,9.56
2022-10-04T16:39:58.527Z,9.42
2022-10-04T16:45:43.209Z,9.38
2022-10-04T16:51:27.143Z,9.24
2022-10-04T16:56:35.231Z,9.05
2022-10-04T17:02:17.188Z,8.96
2022-10-04T17:07:33.941Z,8.79
2022-10-04T17:12:52.626Z,8.98
2022-10-04T17:18:13.149Z,8.86
2022-10-04T17:23:38.056Z,9.01
2022-10-04T17:28:56.609Z,8.60
2022-10-04T17:34:10.443Z,8.59
2022-10-04T17:39:44.651Z,8.52
2022-10-04T17:45:17.309Z,8.17
2022-10-04T17:50:45.400Z,8.03
2022-10-04T17:55:53.329Z,7.90
2022-10-04T18:01:08.009Z,7.94
2022-10-04T18:06:29.143Z,7.99
2022-10-04T18:11:43.817Z,8.03
2022-10-04T18:16:53.327Z,8.63
2022-10-04T18:22:05.395Z,8.35
2022-10-04T18:27:19.771Z,8.49
2022-10-04T18:32:35.516Z,8.78
2022-10-04T18:37:40.846Z,8.74
2022-10-04T18:42:53.252Z,8.77
2022-10-04T18:48:00.900Z,8.94
2022-10-04T18:53:28.118Z,8.69
2022-10-04T18:59:01.865Z,8.64
2022-10-04T19:04:18.300Z,8.56
2022-10-04T19:09:31.814Z,8.27
2022-10-04T19:14:46.660Z,8.43
2022-10-04T19:20:03.317Z,8.66
2022-10-04T19:25:35.790Z,8.85
2022-10-04T19:30:55.046Z,8.88
2022-10-04T19:36:17.419Z,8.93
2022-10-04T19:41:30.143Z,8.72
2022-10-04T19:46:43.585Z,8.90
2022-10-04T19:51:53.391Z,8.92
2022-10-04T19:57:00.349Z,8.82
2022-10-04T20:02:09.711Z,8.86
2022-10-04T20:07:23.732Z,8.74
2022-10-04T20:12:37.330Z,8.66
2022-10-04T20:17:41.478Z,8.08
2022-10-04T20:23:00.172Z,7.91
2022-10-04T20:28:04.537Z,7.77
2022-10-04T20:33:08.388Z,7.43
2022-10-04T20:38:32.170Z,7.38
2022-10-04T20:43:54.455Z,7.49
2022-10-04T20:48:59.113Z,7.16
2022-10-04T20:54:06.506Z,7.03
2022-10-04T20:59:15.097Z,7.00
2022-10-04T21:04:29.935Z,6.70
2022-10-04T21:09:37.205Z,6.88
2022-10-04T21:14:41.088Z,7.10
2022-10-04T21:19:46.165Z,7.24
2022-10-04T21:24:57.771Z,7.09
2022-10-04T21:30:02.788Z,7.02
2022-10-04T21:35:08.261Z,7.03
2022-10-04T21:40:14.388Z,7.26
2022-10-04T21:45:18.237Z,7.15
2022-10-04T21:50:22.115Z,7.57
2022-10-04T21:55:27.587Z,7.66
2022-10-04T22:00:31.610Z,7.64
2022-10-04T22:05:35.573Z,7.66
2022-10-04T22:10:41.140Z,7.68
2022-10-04T22:15:45.034Z,7.82
2022-10-04T22:20:48.843Z,7.75
2022-10-04T22:25:55.298Z,8.11
2022-10-04T22:30:59.949Z,7.70
2022-10-04T22:36:15.344Z,7.51
2022-10-04T22:41:21.094Z,7.34
2022-10-04T22:46:29.395Z,7.13
2022-10-04T22:51:33.610Z,7.18
2022-10-04T22:56:39.663Z,7.40
2022-10-04T23:01:44.830Z,7.47
2022-10-04T23:06:48.889Z,7.41
2022-10-04T23:11:54.232Z,7.06
2022-10-04T23:16:58.034Z,6.72
2022-10-04T23:22:01.849Z,6.49
2022-10-04T23:27:17.153Z,6.20
2022-10-04T23:32:20.936Z,6.00
2022-10-04T23:37:27.005Z,6.13
2022-10-04T23:42:36.861Z,5.75
2022-10-04T23:47:40.664Z,5.71
2022-10-04T23:52:44.796Z,5.40
2022-10-04T23:57:50.440Z,5.24
